Time;durP1;ratioP1;P1;durP2;ratioP2;P2;SDS_P1;SDS_P2;PMS_P1;PMS_P2;Temp;Humidity;BMP_temperature;BMP_pressure;BME280_temperature;BME280_humidity;BME280_pressure;Samples;Min_cycle;Max_cycle;Signal;HPM_P1;HPM_P2
2022/12/12 00:01:21;;;;;;;36.17;17.90;;;0.70;99.90;;;;;;5023668;28;20037;-80
2022/12/12 00:03:47;;;;;;;42.08;18.05;;;0.40;99.90;;;;;;5038346;28;20040;-80
2022/12/12 00:06:13;;;;;;;35.72;17.70;;;0.10;99.90;;;;;;5016227;28;20029;-80
2022/12/12 00:08:38;;;;;;;35.13;17.02;;;1.00;99.90;;;;;;5057166;28;20121;-80
2022/12/12 00:11:05;;;;;;;35.97;17.35;;;0.10;99.90;;;;;;5031531;28;20099;-80
2022/12/12 00:13:31;;;;;;;37.00;17.23;;;-0.30;99.90;;;;;;5054313;28;20422;-82
2022/12/12 00:15:56;;;;;;;37.63;17.80;;;0.10;99.90;;;;;;5052732;28;20650;-82
2022/12/12 00:18:22;;;;;;;35.83;17.65;;;0.10;99.90;;;;;;5022117;28;20049;-80
2022/12/12 00:20:52;;;;;;;37.15;17.30;;;0.30;99.90;;;;;;5052419;28;20083;-79
2022/12/12 00:23:18;;;;;;;37.47;16.92;;;0.10;99.90;;;;;;5038106;28;20116;-80
2022/12/12 00:25:44;;;;;;;35.00;18.13;;;0.10;99.90;;;;;;5019828;28;20170;-80
2022/12/12 00:28:10;;;;;;;32.70;15.30;;;0.10;99.90;;;;;;5021221;28;20045;-80
2022/12/12 00:30:38;;;;;;;38.47;16.83;;;0.10;99.90;;;;;;5048771;28;20213;-80
2022/12/12 00:33:04;;;;;;;32.03;16.63;;;0.10;99.90;;;;;;5035607;28;21353;-80
2022/12/12 00:35:30;;;;;;;34.83;16.55;;;0.10;99.90;;;;;;5032527;28;20051;-80
2022/12/12 00:37:56;;;;;;;41.08;18.02;;;0.10;99.90;;;;;;5013292;28;20274;-80
2022/12/12 00:40:21;;;;;;;39.50;17.27;;;0.40;99.90;;;;;;5021395;28;20139;-81
2022/12/12 00:42:47;;;;;;;34.83;16.92;;;0.10;99.90;;;;;;5037789;28;20048;-80
2022/12/12 00:45:14;;;;;;;36.78;17.08;;;0.80;99.90;;;;;;5020458;28;20036;-80
2022/12/12 00:47:39;;;;;;;34.90;16.83;;;0.10;99.90;;;;;;5034819;28;20098;-80
2022/12/12 00:50:08;;;;;;;36.80;17.17;;;1.10;99.90;;;;;;5032434;28;20509;-80
2022/12/12 00:52:34;;;;;;;37.58;17.70;;;0.10;99.90;;;;;;5021162;28;20478;-81
2022/12/12 00:55:00;;;;;;;36.25;16.98;;;0.10;99.90;;;;;;5054167;28;20102;-80
2022/12/12 00:57:26;;;;;;;38.20;17.98;;;0.10;99.90;;;;;;5029576;28;20302;-80
2022/12/12 00:59:52;;;;;;;38.25;18.52;;;0.20;99.90;;;;;;5016218;28;20049;-81
2022/12/12 01:02:18;;;;;;;35.40;16.95;;;0.10;99.90;;;;;;5030079;28;20068;-80
2022/12/12 01:04:44;;;;;;;36.72;17.20;;;0.10;99.90;;;;;;5014993;28;20394;-80
2022/12/12 01:07:10;;;;;;;38.28;17.35;;;0.10;99.90;;;;;;5034981;28;20047;-80
2022/12/12 01:09:36;;;;;;;36.10;16.13;;;0.10;99.90;;;;;;5015988;28;20071;-79
2022/12/12 01:12:02;;;;;;;33.72;17.17;;;0.10;99.90;;;;;;5020004;28;20036;-80
2022/12/12 01:14:28;;;;;;;35.28;16.92;;;0.10;99.90;;;;;;5032749;28;20520;-80
2022/12/12 01:16:54;;;;;;;36.75;18.05;;;0.10;99.90;;;;;;5018164;28;20056;-80
2022/12/12 01:19:20;;;;;;;36.40;16.98;;;0.10;99.90;;;;;;5021025;28;20056;-80
2022/12/12 01:21:46;;;;;;;34.78;16.73;;;0.90;99.90;;;;;;5017866;28;20075;-80
2022/12/12 01:24:11;;;;;;;36.17;16.65;;;0.20;99.90;;;;;;5028308;28;20041;-80
2022/12/12 01:26:37;;;;;;;37.58;17.52;;;0.20;99.90;;;;;;5021620;28;20045;-80
2022/12/12 01:29:03;;;;;;;34.58;16.40;;;0.20;99.90;;;;;;5035075;28;20083;-82
2022/12/12 01:31:29;;;;;;;35.88;16.83;;;1.10;99.90;;;;;;5049148;28;20060;-80
2022/12/12 01:33:55;;;;;;;34.22;17.80;;;0.60;99.90;;;;;;5050286;28;20036;-80
2022/12/12 01:36:22;;;;;;;33.58;16.55;;;0.50;99.90;;;;;;5036819;28;20040;-80
2022/12/12 01:38:51;;;;;;;33.78;16.10;;;0.90;99.90;;;;;;5017107;28;20082;-80
2022/12/12 01:41:17;;;;;;;34.03;16.05;;;0.20;99.90;;;;;;5017096;28;20394;-80
2022/12/12 01:43:43;;;;;;;33.92;16.35;;;0.60;99.90;;;;;;5025891;28;20050;-80
2022/12/12 01:46:32;;;;;;;35.80;16.55;;;0.20;99.90;;;;;;5049069;28;20045;-80
2022/12/12 01:49:21;;;;;;;37.20;16.75;;;0.20;99.90;;;;;;5013175;28;20053;-80
2022/12/12 01:51:51;;;;;;;31.45;16.05;;;0.20;99.90;;;;;;5019651;28;20049;-80
2022/12/12 01:54:23;;;;;;;34.47;17.00;;;0.20;99.90;;;;;;5028304;28;20063;-80
2022/12/12 01:56:51;;;;;;;39.40;17.25;;;0.20;99.90;;;;;;5027915;28;20128;-80
2022/12/12 01:59:21;;;;;;;33.85;16.52;;;0.20;99.90;;;;;;5016346;28;20059;-80
2022/12/12 02:01:47;;;;;;;33.60;16.92;;;0.10;99.90;;;;;;5033153;28;20053;-80
2022/12/12 02:04:14;;;;;;;32.85;16.10;;;0.10;99.90;;;;;;5025961;28;21550;-80
2022/12/12 02:06:40;;;;;;;33.90;16.15;;;0.40;99.90;;;;;;5011129;28;20052;-80
2022/12/12 02:09:09;;;;;;;32.65;15.75;;;0.10;99.90;;;;;;5028039;28;20123;-79
2022/12/12 02:11:42;;;;;;;34.47;15.63;;;0.10;99.90;;;;;;5012560;28;20041;-80
2022/12/12 02:14:08;;;;;;;33.97;15.75;;;0.10;99.90;;;;;;5029196;28;20056;-80
2022/12/12 02:16:46;;;;;;;35.72;16.60;;;0.10;99.90;;;;;;5016503;28;20068;-80
2022/12/12 02:20:06;;;;;;;37.10;16.73;;;0.70;99.90;;;;;;5020392;28;20061;-79
2022/12/12 02:23:08;;;;;;;34.85;16.42;;;0.10;99.90;;;;;;4940516;28;20070;-80
2022/12/12 02:25:53;;;;;;;33.22;16.05;;;0.10;99.90;;;;;;5039016;28;20053;-80
2022/12/12 02:28:24;;;;;;;35.22;15.68;;;0.10;99.90;;;;;;5013958;28;20048;-79
2022/12/12 02:31:15;;;;;;;33.85;15.63;;;0.10;99.90;;;;;;5038442;28;20047;-79
2022/12/12 02:33:50;;;;;;;36.53;17.35;;;0.10;99.90;;;;;;5023635;28;20095;-80
2022/12/12 02:36:55;;;;;;;33.10;15.80;;;0.20;99.90;;;;;;5030203;28;20041;-80
2022/12/12 02:39:21;;;;;;;32.70;15.35;;;0.10;99.90;;;;;;5032201;28;20087;-80
2022/12/12 02:41:52;;;;;;;30.70;14.85;;;1.50;99.90;;;;;;5035549;28;20598;-80
2022/12/12 02:44:56;;;;;;;31.48;15.57;;;0.10;99.90;;;;;;5031796;28;20948;-80
2022/12/12 02:47:29;;;;;;;36.22;16.52;;;0.10;99.90;;;;;;5030260;28;20045;-80
2022/12/12 02:50:10;;;;;;;34.10;15.75;;;0.00;99.90;;;;;;5010126;28;20083;-80
2022/12/12 02:52:41;;;;;;;34.13;15.77;;;0.20;99.90;;;;;;5030869;28;20045;-80
2022/12/12 02:55:08;;;;;;;33.45;15.35;;;0.10;99.90;;;;;;5030111;28;20060;-80
2022/12/12 02:57:33;;;;;;;32.38;16.17;;;0.10;99.90;;;;;;5027606;28;20549;-80
2022/12/12 03:00:12;;;;;;;36.47;16.40;;;0.80;99.90;;;;;;5012699;28;20045;-80
2022/12/12 03:09:08;;;;;;;35.97;16.90;;;0.10;99.90;;;;;;5027958;28;20056;-81
2022/12/12 03:11:43;;;;;;;31.40;15.07;;;0.10;99.90;;;;;;5016408;28;20060;-80
2022/12/12 03:14:23;;;;;;;36.70;16.20;;;1.30;99.90;;;;;;5013016;28;20532;-80
2022/12/12 03:17:18;;;;;;;31.52;15.40;;;0.10;99.90;;;;;;5010886;28;20564;-80
2022/12/12 03:20:07;;;;;;;36.70;16.52;;;0.10;99.90;;;;;;4996399;28;20118;-81
2022/12/12 03:22:55;;;;;;;32.35;14.55;;;0.00;99.90;;;;;;5009852;28;20042;-80
2022/12/12 03:25:28;;;;;;;31.13;14.63;;;0.10;99.90;;;;;;5029597;28;20048;-81
2022/12/12 03:28:04;;;;;;;33.47;15.50;;;0.10;99.90;;;;;;5013188;28;20131;-80
2022/12/12 03:30:38;;;;;;;33.22;15.57;;;0.90;99.90;;;;;;5014090;28;20061;-80
2022/12/12 03:33:16;;;;;;;30.77;14.93;;;0.10;99.90;;;;;;5035726;28;20500;-80
2022/12/12 03:35:47;;;;;;;35.65;16.33;;;0.20;99.90;;;;;;5022541;28;20049;-80
2022/12/12 03:38:32;;;;;;;33.22;16.75;;;0.00;99.90;;;;;;5037337;28;20148;-80
2022/12/12 03:41:01;;;;;;;30.05;13.90;;;0.10;99.90;;;;;;5031834;28;20406;-80
2022/12/12 03:43:32;;;;;;;35.70;16.58;;;0.10;99.90;;;;;;5018314;28;20045;-80
2022/12/12 03:46:23;;;;;;;35.60;15.98;;;0.10;99.90;;;;;;5030034;28;21325;-80
2022/12/12 03:49:02;;;;;;;31.92;13.90;;;0.10;99.90;;;;;;5043199;28;20494;-80
2022/12/12 03:51:38;;;;;;;29.88;14.52;;;0.20;99.90;;;;;;5057002;28;20079;-80
2022/12/12 03:54:20;;;;;;;29.98;15.18;;;0.10;99.90;;;;;;5018662;28;20048;-80
2022/12/12 03:57:07;;;;;;;33.55;15.07;;;0.00;99.90;;;;;;5039430;28;20050;-80
2022/12/12 03:59:45;;;;;;;30.63;14.38;;;0.00;99.90;;;;;;5033733;28;20124;-80
2022/12/12 04:02:24;;;;;;;32.67;14.90;;;0.10;99.90;;;;;;5054251;28;20148;-80
2022/12/12 04:05:17;;;;;;;32.17;14.90;;;0.00;99.90;;;;;;5034679;28;20080;-80
2022/12/12 04:08:09;;;;;;;32.10;14.95;;;-0.10;99.90;;;;;;5040215;28;20048;-80
2022/12/12 04:13:41;;;;;;;32.10;15.07;;;0.10;99.90;;;;;;5057801;28;20055;-79
2022/12/12 04:16:11;;;;;;;27.83;14.00;;;0.00;99.90;;;;;;5055513;28;21856;-80
2022/12/12 04:18:49;;;;;;;29.48;14.35;;;0.10;99.90;;;;;;5036550;28;20990;-79
2022/12/12 04:24:36;;;;;;;;;;;0.00;99.90;;;;;;5032223;28;20708;-80
2022/12/12 04:27:20;;;;;;;32.35;14.73;;;0.10;99.90;;;;;;5034027;28;20057;-80
2022/12/12 04:29:53;;;;;;;29.58;14.18;;;0.10;99.90;;;;;;5034107;28;20044;-80
2022/12/12 04:32:43;;;;;;;32.28;15.50;;;0.70;99.90;;;;;;5036134;28;20049;-80
2022/12/12 04:35:34;;;;;;;28.55;14.52;;;0.00;99.90;;;;;;5037134;28;20066;-80
2022/12/12 04:38:04;;;;;;;29.63;14.38;;;1.00;99.90;;;;;;5008167;28;20047;-80
2022/12/12 04:40:37;;;;;;;31.58;14.50;;;0.00;99.90;;;;;;5014744;28;20040;-81
2022/12/12 04:43:09;;;;;;;30.17;14.30;;;0.00;99.90;;;;;;5031740;28;20054;-81
2022/12/12 04:45:46;;;;;;;29.83;14.07;;;0.10;99.90;;;;;;5017295;28;20101;-82
2022/12/12 04:48:16;;;;;;;34.22;14.98;;;0.10;99.90;;;;;;5037345;28;20048;-81
2022/12/12 04:50:47;;;;;;;32.15;14.48;;;0.00;99.90;;;;;;5037421;28;20044;-81
2022/12/12 04:53:16;;;;;;;31.77;14.68;;;0.00;99.90;;;;;;5037823;28;20041;-82
2022/12/12 04:55:47;;;;;;;33.33;13.95;;;0.00;99.90;;;;;;5020631;28;20051;-81
2022/12/12 04:58:13;;;;;;;31.52;14.20;;;0.00;99.90;;;;;;5032007;28;20127;-80
2022/12/12 05:00:47;;;;;;;32.63;14.27;;;0.00;99.90;;;;;;5058003;28;20121;-80
2022/12/12 05:03:47;;;;;;;29.27;14.18;;;0.00;99.90;;;;;;5033387;28;20091;-80
2022/12/12 05:06:17;;;;;;;26.60;13.63;;;0.00;99.90;;;;;;5039768;28;20128;-80
2022/12/12 05:08:45;;;;;;;29.98;13.77;;;0.00;99.90;;;;;;5060169;28;20048;-81
2022/12/12 05:11:12;;;;;;;27.70;13.02;;;0.00;99.90;;;;;;5021824;28;20072;-80
2022/12/12 05:13:41;;;;;;;28.90;13.70;;;0.00;99.90;;;;;;5051277;28;20049;-80
2022/12/12 05:16:16;;;;;;;29.55;13.85;;;0.00;99.90;;;;;;5042209;28;20040;-81
2022/12/12 05:18:42;;;;;;;31.48;14.70;;;0.00;99.90;;;;;;5028370;28;20404;-81
2022/12/12 05:21:08;;;;;;;29.55;14.30;;;0.00;99.90;;;;;;5027392;28;20045;-80
2022/12/12 05:23:33;;;;;;;29.50;13.73;;;0.60;99.90;;;;;;5040873;28;20052;-80
2022/12/12 05:26:04;;;;;;;28.08;13.77;;;0.00;99.90;;;;;;5040590;28;20072;-80
2022/12/12 05:28:30;;;;;;;31.87;14.70;;;0.00;99.90;;;;;;5034213;28;20052;-80
2022/12/12 05:30:55;;;;;;;31.40;14.52;;;0.00;99.90;;;;;;5020453;28;20222;-80
2022/12/12 05:33:21;;;;;;;27.17;13.20;;;-0.10;99.90;;;;;;5022893;28;20039;-80
2022/12/12 05:35:47;;;;;;;29.40;13.85;;;0.00;99.90;;;;;;5037651;28;20040;-81
2022/12/12 05:38:13;;;;;;;30.67;14.48;;;-0.10;99.90;;;;;;5024631;28;20041;-81
2022/12/12 05:40:39;;;;;;;30.13;13.73;;;0.00;99.90;;;;;;5023123;28;20064;-80
2022/12/12 05:43:05;;;;;;;33.33;14.35;;;0.00;99.90;;;;;;5054702;28;20108;-80
2022/12/12 05:45:31;;;;;;;26.67;13.65;;;0.00;99.90;;;;;;5017586;28;20068;-80
2022/12/12 05:47:57;;;;;;;29.90;14.32;;;0.00;99.90;;;;;;5030268;28;20118;-80
2022/12/12 05:50:23;;;;;;;30.63;14.75;;;0.20;99.90;;;;;;5021711;28;20040;-81
2022/12/12 05:52:48;;;;;;;28.92;14.40;;;0.00;99.90;;;;;;5039271;28;20041;-80
2022/12/12 05:55:14;;;;;;;32.67;14.15;;;0.00;99.90;;;;;;5032628;28;20049;-79
2022/12/12 05:57:40;;;;;;;28.67;14.05;;;0.00;99.90;;;;;;5034208;28;20040;-80
2022/12/12 06:00:07;;;;;;;28.67;14.10;;;-0.10;99.90;;;;;;5039362;28;20048;-80
2022/12/12 06:02:33;;;;;;;28.77;13.65;;;0.00;99.90;;;;;;5038302;28;20053;-80
2022/12/12 06:04:58;;;;;;;31.88;14.35;;;0.30;99.90;;;;;;5030546;28;20481;-80
2022/12/12 06:07:24;;;;;;;30.65;15.40;;;-0.10;99.90;;;;;;5052797;28;20140;-79
2022/12/12 06:09:50;;;;;;;31.00;14.40;;;-0.10;99.90;;;;;;5020976;28;20132;-80
2022/12/12 06:12:15;;;;;;;30.38;13.55;;;0.00;99.90;;;;;;5021815;28;20037;-79
2022/12/12 06:14:41;;;;;;;30.02;14.05;;;-0.10;99.90;;;;;;5023223;28;20083;-79
2022/12/12 06:17:07;;;;;;;27.15;14.00;;;-0.10;99.90;;;;;;5038992;28;20036;-80
2022/12/12 06:19:33;;;;;;;32.13;15.50;;;0.00;99.90;;;;;;5021795;28;20934;-80
2022/12/12 06:21:58;;;;;;;31.88;14.52;;;-0.10;99.90;;;;;;5022267;28;20101;-80
2022/12/12 06:24:24;;;;;;;31.27;15.05;;;0.40;99.90;;;;;;5022771;28;20040;-80
2022/12/12 06:26:50;;;;;;;28.13;14.40;;;-0.10;99.90;;;;;;5039341;28;20041;-79
2022/12/12 06:29:15;;;;;;;29.63;13.95;;;-0.10;99.90;;;;;;5040219;28;20059;-79
2022/12/12 06:31:41;;;;;;;30.40;14.60;;;-0.10;99.90;;;;;;5037942;28;20466;-79
2022/12/12 06:34:07;;;;;;;31.63;15.23;;;-0.10;99.90;;;;;;5037534;28;20440;-80
2022/12/12 06:36:32;;;;;;;30.75;14.75;;;0.50;99.90;;;;;;5038777;28;20327;-79
2022/12/12 06:38:59;;;;;;;29.85;14.18;;;-0.10;99.90;;;;;;5040507;28;20067;-79
2022/12/12 06:41:29;;;;;;;33.83;14.93;;;-0.10;99.90;;;;;;5025057;28;20040;-79
2022/12/12 06:43:55;;;;;;;31.42;15.43;;;-0.10;99.90;;;;;;5021343;28;20052;-79
2022/12/12 06:46:23;;;;;;;33.40;15.38;;;-0.10;99.90;;;;;;5022248;28;20066;-80
2022/12/12 06:48:49;;;;;;;29.08;13.95;;;-0.10;99.90;;;;;;5039320;28;20606;-80
2022/12/12 06:51:21;;;;;;;33.50;14.75;;;-0.10;99.90;;;;;;5040042;28;20150;-80
2022/12/12 06:53:47;;;;;;;29.80;14.88;;;-0.10;99.90;;;;;;5026079;28;20119;-79
2022/12/12 06:56:15;;;;;;;34.35;15.05;;;0.10;99.90;;;;;;5058107;28;20175;-80
2022/12/12 06:58:41;;;;;;;32.33;14.73;;;-0.10;99.90;;;;;;5036082;28;20049;-79
2022/12/12 07:01:09;;;;;;;30.05;14.60;;;0.60;99.90;;;;;;5020759;28;20033;-80
2022/12/12 07:03:35;;;;;;;29.25;13.75;;;0.10;99.90;;;;;;5039738;28;20566;-79
2022/12/12 07:06:01;;;;;;;28.63;13.88;;;-0.10;99.90;;;;;;5020395;28;20044;-80
2022/12/12 07:08:27;;;;;;;28.80;14.23;;;-0.10;99.90;;;;;;5035207;28;20040;-79
2022/12/12 07:10:54;;;;;;;30.02;13.65;;;-0.10;99.90;;;;;;5038768;28;20048;-79
2022/12/12 07:13:20;;;;;;;33.83;14.60;;;-0.10;99.90;;;;;;5039846;28;20159;-80
2022/12/12 07:15:50;;;;;;;30.42;14.15;;;0.80;99.90;;;;;;5021686;28;20056;-80
2022/12/12 07:18:17;;;;;;;28.90;13.77;;;-0.10;99.90;;;;;;5023250;28;20149;-79
2022/12/12 07:20:45;;;;;;;35.47;14.95;;;-0.10;99.90;;;;;;5037154;28;20048;-79
2022/12/12 07:23:12;;;;;;;30.33;14.30;;;0.00;99.90;;;;;;5040488;28;20037;-78
2022/12/12 07:25:39;;;;;;;29.77;14.05;;;-0.10;99.90;;;;;;5063125;28;20131;-78
2022/12/12 07:28:04;;;;;;;30.40;14.55;;;-0.10;99.90;;;;;;5043306;28;20505;-78
2022/12/12 07:30:30;;;;;;;34.13;15.60;;;0.00;99.90;;;;;;5044671;28;20048;-79
2022/12/12 07:32:56;;;;;;;36.13;16.15;;;0.00;99.90;;;;;;5057933;28;20504;-79
2022/12/12 07:35:22;;;;;;;32.90;16.08;;;0.00;99.90;;;;;;5049977;28;20051;-78
2022/12/12 07:37:48;;;;;;;32.58;15.10;;;0.00;99.90;;;;;;5054835;28;20040;-78
2022/12/12 07:40:14;;;;;;;32.17;15.80;;;0.00;99.90;;;;;;5053024;28;20124;-78
2022/12/12 07:42:40;;;;;;;31.08;15.48;;;-0.10;99.90;;;;;;5053069;28;21026;-79
2022/12/12 07:45:07;;;;;;;32.65;15.07;;;0.00;99.90;;;;;;5036004;28;20051;-79
2022/12/12 07:47:33;;;;;;;31.55;15.07;;;0.00;99.90;;;;;;5051975;28;20052;-79
2022/12/12 07:49:59;;;;;;;31.35;16.25;;;0.00;99.90;;;;;;5024131;28;20133;-79
2022/12/12 07:52:25;;;;;;;29.65;14.93;;;0.00;99.90;;;;;;5044414;28;20056;-78
2022/12/12 07:54:51;;;;;;;29.83;15.07;;;0.50;99.90;;;;;;5023840;28;20047;-79
2022/12/12 07:57:17;;;;;;;33.70;15.13;;;0.00;99.90;;;;;;5024920;28;20040;-78
2022/12/12 07:59:43;;;;;;;31.23;14.55;;;0.00;99.90;;;;;;5026818;28;20044;-78
2022/12/12 08:02:10;;;;;;;30.55;15.85;;;0.80;99.90;;;;;;5042619;28;20051;-80
2022/12/12 08:04:36;;;;;;;29.27;13.90;;;1.20;99.90;;;;;;5024489;28;20071;-78
2022/12/12 08:07:02;;;;;;;30.00;14.35;;;1.10;99.90;;;;;;5038557;28;20527;-78
2022/12/12 08:09:27;;;;;;;34.85;15.80;;;0.30;99.90;;;;;;5028646;28;20104;-78
2022/12/12 08:11:58;;;;;;;31.48;15.25;;;0.50;99.90;;;;;;5062282;28;20040;-79
2022/12/12 08:14:25;;;;;;;34.20;15.57;;;0.40;99.90;;;;;;5027256;28;20048;-79
2022/12/12 08:16:51;;;;;;;31.00;15.05;;;0.10;99.90;;;;;;5041686;28;20068;-78
2022/12/12 08:19:17;;;;;;;30.90;14.63;;;0.20;99.90;;;;;;5044656;28;20036;-79
2022/12/12 08:21:44;;;;;;;33.55;16.10;;;0.00;99.90;;;;;;5027169;28;20048;-79
2022/12/12 08:24:14;;;;;;;31.42;15.35;;;0.00;99.90;;;;;;5032887;28;20437;-78
2022/12/12 08:26:41;;;;;;;30.47;15.73;;;0.00;99.90;;;;;;5074283;28;20052;-78
2022/12/12 08:29:07;;;;;;;30.55;14.32;;;0.20;99.90;;;;;;5052584;28;20349;-79
2022/12/12 08:31:33;;;;;;;28.83;14.00;;;1.30;99.90;;;;;;5047568;28;20074;-79
2022/12/12 08:34:00;;;;;;;31.05;15.52;;;0.00;99.90;;;;;;5050054;28;20127;-79
2022/12/12 08:36:29;;;;;;;31.23;14.35;;;0.00;99.90;;;;;;5032766;28;20063;-79
2022/12/12 08:38:55;;;;;;;31.95;14.98;;;0.00;99.90;;;;;;5047472;28;20039;-79
2022/12/12 08:41:21;;;;;;;31.52;14.95;;;0.00;99.90;;;;;;5023288;28;20068;-79
2022/12/12 08:43:48;;;;;;;37.70;15.93;;;0.40;99.90;;;;;;5061089;28;20097;-82
2022/12/12 08:46:16;;;;;;;29.33;14.93;;;0.00;99.90;;;;;;5040038;28;20155;-78
2022/12/12 08:48:41;;;;;;;29.33;14.63;;;0.00;99.90;;;;;;5039582;28;20091;-79
2022/12/12 08:51:08;;;;;;;31.23;14.85;;;0.30;99.90;;;;;;5062250;28;20135;-82
2022/12/12 08:53:33;;;;;;;31.42;15.00;;;0.50;99.90;;;;;;5022371;28;20128;-79
2022/12/12 08:55:59;;;;;;;31.63;15.18;;;0.00;99.90;;;;;;5039476;28;20119;-79
2022/12/12 08:58:25;;;;;;;33.50;15.65;;;0.10;99.90;;;;;;5022471;28;20048;-79
2022/12/12 09:00:51;;;;;;;30.15;14.95;;;0.00;99.90;;;;;;5028545;28;20056;-79
2022/12/12 09:03:19;;;;;;;28.95;14.25;;;0.70;99.90;;;;;;5019021;28;20098;-79
2022/12/12 09:05:45;;;;;;;27.95;14.38;;;1.10;99.90;;;;;;5041213;28;20132;-79
2022/12/12 09:08:12;;;;;;;31.88;14.70;;;0.30;99.90;;;;;;5021235;28;20405;-79
2022/12/12 09:10:40;;;;;;;33.20;15.73;;;0.10;99.90;;;;;;5020674;28;20048;-79
2022/12/12 09:13:10;;;;;;;32.72;16.70;;;0.30;99.90;;;;;;5054984;28;20041;-79
2022/12/12 09:15:37;;;;;;;46.40;24.63;;;0.60;99.90;;;;;;5023512;28;20037;-80
2022/12/12 09:18:03;;;;;;;42.53;22.50;;;1.20;99.90;;;;;;5054616;28;20163;-79
2022/12/12 09:20:29;;;;;;;34.63;17.85;;;0.10;99.90;;;;;;5038239;28;20102;-79
2022/12/12 09:22:55;;;;;;;35.80;17.67;;;0.80;99.90;;;;;;5039273;28;20746;-79
2022/12/12 09:25:21;;;;;;;35.00;19.83;;;0.20;99.90;;;;;;5024747;28;20500;-79
2022/12/12 09:27:47;;;;;;;34.63;18.30;;;0.40;99.90;;;;;;5038887;28;20036;-80
2022/12/12 09:30:13;;;;;;;31.60;17.17;;;0.10;99.90;;;;;;5039817;28;20517;-80
2022/12/12 09:32:40;;;;;;;35.45;16.73;;;0.40;99.90;;;;;;5044970;28;20036;-79
2022/12/12 09:35:06;;;;;;;31.05;15.80;;;0.10;99.90;;;;;;5046409;28;20041;-79
2022/12/12 09:37:32;;;;;;;30.17;14.80;;;0.10;99.90;;;;;;5055605;28;20123;-79
2022/12/12 09:39:58;;;;;;;32.10;15.30;;;0.10;99.90;;;;;;5056384;28;20190;-79
2022/12/12 09:42:26;;;;;;;33.67;14.90;;;0.20;99.90;;;;;;5024459;28;20349;-79
2022/12/12 09:44:59;;;;;;;28.25;14.23;;;0.20;99.90;;;;;;5042371;28;20041;-79
2022/12/12 09:47:43;;;;;;;33.00;15.68;;;0.20;99.90;;;;;;5043172;28;20432;-79
2022/12/12 09:50:31;;;;;;;29.13;14.55;;;0.20;99.90;;;;;;5043353;28;20110;-79
2022/12/12 09:53:01;;;;;;;30.40;16.10;;;0.20;99.90;;;;;;5050701;28;20056;-79
2022/12/12 09:55:36;;;;;;;27.17;15.10;;;0.20;99.90;;;;;;5054797;28;20044;-79
2022/12/12 09:58:21;;;;;;;28.65;14.88;;;0.20;99.90;;;;;;5035843;28;20063;-79
2022/12/12 10:00:54;;;;;;;29.83;14.57;;;0.30;99.90;;;;;;5038701;28;20044;-79
2022/12/12 10:03:51;;;;;;;32.97;14.60;;;0.30;99.90;;;;;;5033188;28;20124;-79
2022/12/12 10:06:19;;;;;;;28.75;14.30;;;0.30;99.90;;;;;;5048489;28;20518;-79
2022/12/12 10:09:21;;;;;;;27.27;14.52;;;0.30;99.90;;;;;;5024515;28;20458;-81
2022/12/12 10:11:49;;;;;;;25.83;14.50;;;0.40;99.90;;;;;;5058556;28;20048;-81
2022/12/12 10:14:36;;;;;;;27.63;13.75;;;0.40;99.90;;;;;;5021487;28;20037;-78
2022/12/12 10:17:20;;;;;;;28.58;14.68;;;0.40;99.90;;;;;;5038919;28;20101;-79
2022/12/12 10:19:55;;;;;;;27.05;13.18;;;0.40;99.90;;;;;;5037397;28;20056;-79
2022/12/12 10:22:35;;;;;;;25.92;13.75;;;0.40;99.90;;;;;;5024376;28;20151;-79
2022/12/12 10:25:23;;;;;;;26.27;14.02;;;1.80;99.90;;;;;;5037583;28;20118;-79
2022/12/12 10:27:54;;;;;;;29.38;14.98;;;0.40;99.90;;;;;;5038443;28;20053;-78
2022/12/12 10:30:20;;;;;;;27.73;14.83;;;1.60;99.90;;;;;;5040217;28;20498;-79
2022/12/12 10:33:03;;;;;;;28.13;14.68;;;0.40;99.90;;;;;;5043618;28;20056;-80
2022/12/12 10:35:46;;;;;;;26.65;14.50;;;0.90;99.90;;;;;;5020044;28;20052;-79
2022/12/12 10:38:12;;;;;;;26.80;14.02;;;0.40;99.90;;;;;;5038345;28;20382;-79
2022/12/12 10:40:59;;;;;;;29.90;14.35;;;0.40;99.90;;;;;;5022170;28;20051;-79
2022/12/12 10:43:36;;;;;;;26.95;13.82;;;0.40;99.90;;;;;;5023476;28;20053;-79
2022/12/12 10:46:15;;;;;;;26.92;14.02;;;0.40;99.90;;;;;;5038724;28;20048;-78
2022/12/12 10:48:43;;;;;;;27.30;13.63;;;0.50;99.90;;;;;;5036623;28;20076;-79
2022/12/12 10:51:13;;;;;;;27.08;13.10;;;0.50;99.90;;;;;;5056299;28;20048;-79
2022/12/12 10:53:40;;;;;;;24.67;13.05;;;0.90;99.90;;;;;;5037299;28;20131;-77
2022/12/12 10:56:20;;;;;;;25.50;13.43;;;0.50;99.90;;;;;;5021898;28;20052;-78
2022/12/12 10:58:53;;;;;;;27.27;13.55;;;0.50;99.90;;;;;;5034809;28;20047;-79
2022/12/12 11:01:25;;;;;;;27.88;13.80;;;0.50;99.90;;;;;;5033305;28;20056;-79
2022/12/12 11:03:53;;;;;;;24.30;13.15;;;0.60;99.90;;;;;;5036993;28;20048;-79
2022/12/12 11:06:28;;;;;;;27.35;14.52;;;0.60;99.90;;;;;;5019903;28;20528;-79
2022/12/12 11:08:57;;;;;;;25.23;13.43;;;1.40;99.90;;;;;;5038400;28;20088;-81
2022/12/12 11:11:25;;;;;;;27.30;13.80;;;0.60;99.90;;;;;;5037139;28;20541;-79
2022/12/12 11:13:59;;;;;;;26.85;13.75;;;0.80;99.90;;;;;;5055795;28;20036;-80
2022/12/12 11:16:40;;;;;;;25.05;13.52;;;0.60;99.90;;;;;;5024212;28;20045;-79
2022/12/12 11:19:15;;;;;;;23.70;12.98;;;1.00;99.90;;;;;;5020158;28;20425;-79
2022/12/12 11:21:41;;;;;;;25.00;13.90;;;0.60;99.90;;;;;;5037286;28;20053;-79
2022/12/12 11:24:13;;;;;;;27.60;13.25;;;0.80;99.90;;;;;;5035500;28;20037;-79
2022/12/12 11:26:57;;;;;;;26.67;14.07;;;0.70;99.90;;;;;;5050893;28;20049;-80
2022/12/12 11:29:44;;;;;;;24.27;12.73;;;1.00;99.90;;;;;;5040299;28;20084;-79
2022/12/12 11:32:22;;;;;;;27.27;13.65;;;0.90;99.90;;;;;;5023252;28;20615;-79
2022/12/12 11:34:52;;;;;;;28.40;13.88;;;0.70;99.90;;;;;;5058331;28;20049;-79
2022/12/12 11:37:23;;;;;;;25.60;13.60;;;1.70;99.90;;;;;;5039578;28;20041;-80
2022/12/12 11:39:51;;;;;;;23.25;12.88;;;0.70;99.90;;;;;;5036982;28;20528;-80
2022/12/12 11:42:19;;;;;;;28.17;14.52;;;1.40;99.90;;;;;;5040044;28;20045;-79
2022/12/12 11:44:45;;;;;;;23.73;13.52;;;0.70;99.90;;;;;;5038395;28;20036;-79
2022/12/12 11:47:19;;;;;;;27.27;13.27;;;0.80;99.90;;;;;;5021687;28;20041;-80
2022/12/12 11:49:46;;;;;;;26.98;14.02;;;0.80;99.90;;;;;;5036774;28;20678;-79
2022/12/12 11:52:30;;;;;;;27.20;13.82;;;0.80;99.90;;;;;;5039653;28;20048;-79
2022/12/12 11:54:57;;;;;;;26.55;14.27;;;0.80;99.90;;;;;;5055084;28;20048;-80
2022/12/12 11:57:33;;;;;;;24.95;13.52;;;0.80;99.90;;;;;;5020165;28;20131;-79
2022/12/12 12:00:08;;;;;;;26.35;13.73;;;0.80;99.90;;;;;;5020302;28;20040;-80
2022/12/12 12:02:48;;;;;;;26.27;13.88;;;0.80;99.90;;;;;;5037975;28;20044;-80
2022/12/12 12:05:32;;;;;;;26.55;14.27;;;0.80;99.90;;;;;;5023073;28;20045;-79
2022/12/12 12:08:25;;;;;;;27.45;15.18;;;1.50;99.90;;;;;;5040531;28;20037;-79
2022/12/12 12:11:16;;;;;;;29.13;14.15;;;0.90;99.90;;;;;;5026587;28;20158;-79
2022/12/12 12:13:50;;;;;;;27.33;13.95;;;0.80;99.90;;;;;;5047379;28;20041;-80
2022/12/12 12:16:52;;;;;;;28.02;13.90;;;0.80;99.90;;;;;;5045258;28;20131;-80
2022/12/12 12:19:38;;;;;;;30.40;14.80;;;0.80;99.90;;;;;;5046274;28;20040;-80
2022/12/12 12:22:29;;;;;;;29.30;14.93;;;0.90;99.90;;;;;;5031599;28;20426;-79
2022/12/12 12:25:18;;;;;;;27.52;14.40;;;0.90;99.90;;;;;;5053683;28;20135;-79
2022/12/12 12:27:52;;;;;;;24.13;12.98;;;0.90;99.90;;;;;;5046815;28;20102;-79
2022/12/12 12:30:26;;;;;;;27.58;15.00;;;0.90;99.90;;;;;;5044196;28;20120;-80
2022/12/12 12:33:14;;;;;;;29.08;14.35;;;0.90;99.90;;;;;;5036239;28;20052;-79
2022/12/12 12:35:51;;;;;;;29.42;14.52;;;0.90;99.90;;;;;;5059103;28;20954;-80
2022/12/12 12:38:26;;;;;;;29.05;15.13;;;0.90;99.90;;;;;;5025769;28;20064;-79
2022/12/12 12:41:06;;;;;;;26.92;13.45;;;0.90;99.90;;;;;;5043520;28;20048;-80
2022/12/12 12:43:54;;;;;;;27.10;13.38;;;0.90;99.90;;;;;;5060592;28;20032;-80
2022/12/12 12:46:33;;;;;;;27.13;13.77;;;0.90;99.90;;;;;;5032390;28;20160;-79
2022/12/12 12:49:07;;;;;;;28.58;14.40;;;1.00;99.90;;;;;;5035334;28;20052;-79
2022/12/12 12:51:37;;;;;;;30.08;14.52;;;1.00;99.90;;;;;;5021960;28;20085;-79
2022/12/12 12:54:21;;;;;;;28.60;14.95;;;0.60;99.90;;;;;;5035312;28;20045;-80
2022/12/12 12:56:59;;;;;;;27.45;14.10;;;2.00;99.90;;;;;;5041197;28;20193;-78
2022/12/12 12:59:32;;;;;;;28.23;13.85;;;1.00;99.90;;;;;;5019913;28;20037;-79
2022/12/12 13:02:03;;;;;;;33.85;14.57;;;1.80;99.90;;;;;;5033707;28;20044;-79
2022/12/12 13:04:41;;;;;;;23.90;13.20;;;1.00;99.90;;;;;;5040730;28;20048;-79
2022/12/12 13:07:28;;;;;;;27.30;14.52;;;1.00;99.90;;;;;;5020338;28;20036;-80
2022/12/12 13:10:21;;;;;;;26.23;14.25;;;1.00;99.90;;;;;;5039495;28;20041;-79
2022/12/12 13:13:11;;;;;;;27.63;13.57;;;1.00;99.90;;;;;;5039489;28;20041;-80